Time;durP1;ratioP1;P1;durP2;ratioP2;P2;SDS_P1;SDS_P2;PMS_P1;PMS_P2;Temp;Humidity;BMP_temperature;BMP_pressure;BME280_temperature;BME280_humidity;BME280_pressure;Samples;Min_cycle;Max_cycle;Signal;HPM_P1;HPM_P2
2023/12/30 00:01:45;;;;;;;14.27;3.40;;;8.90;99.90;;;;;;5117018;28;20173;-59
2023/12/30 00:04:11;;;;;;;12.70;2.88;;;8.80;99.90;;;;;;5116972;28;20537;-59
2023/12/30 00:06:36;;;;;;;13.73;3.45;;;8.80;99.90;;;;;;5116919;28;20182;-59
2023/12/30 00:09:02;;;;;;;13.25;3.17;;;8.80;99.90;;;;;;5116939;28;20184;-59
2023/12/30 00:11:28;;;;;;;13.02;3.53;;;8.70;99.90;;;;;;5116612;28;20806;-59
2023/12/30 00:13:54;;;;;;;13.43;3.42;;;8.70;99.90;;;;;;5116784;28;20188;-59
2023/12/30 00:16:19;;;;;;;13.65;3.15;;;8.60;99.90;;;;;;5116798;28;20173;-59
2023/12/30 00:18:45;;;;;;;14.40;3.13;;;8.60;99.90;;;;;;5116750;28;20177;-59
2023/12/30 00:21:12;;;;;;;12.05;2.80;;;8.60;99.90;;;;;;5115220;28;20169;-59
2023/12/30 00:23:42;;;;;;;11.65;3.08;;;8.70;99.90;;;;;;5116202;28;20229;-59
2023/12/30 00:26:08;;;;;;;15.30;3.50;;;8.70;99.90;;;;;;5116491;28;20216;-59
2023/12/30 00:28:34;;;;;;;14.48;3.30;;;8.70;99.90;;;;;;5116499;28;20185;-59
2023/12/30 00:30:59;;;;;;;15.70;3.33;;;8.60;99.90;;;;;;5116474;28;20176;-59
2023/12/30 00:33:25;;;;;;;15.75;3.35;;;8.60;99.90;;;;;;5116140;28;20180;-59
2023/12/30 00:35:51;;;;;;;13.00;2.78;;;8.50;99.90;;;;;;5116406;28;20174;-59
2023/12/30 00:38:16;;;;;;;12.35;2.83;;;8.50;99.90;;;;;;5116349;28;20173;-59
2023/12/30 00:40:42;;;;;;;8.55;2.67;;;8.50;99.90;;;;;;5116047;28;20230;-59
2023/12/30 00:43:07;;;;;;;13.57;3.13;;;8.50;99.90;;;;;;5116277;28;20252;-59
2023/12/30 00:45:33;;;;;;;11.95;2.97;;;8.60;99.90;;;;;;5116074;28;20270;-59
2023/12/30 00:47:59;;;;;;;14.75;3.00;;;8.50;99.90;;;;;;5116212;28;20626;-59
2023/12/30 00:50:24;;;;;;;13.88;3.00;;;8.50;99.90;;;;;;5115305;28;20260;-59
2023/12/30 00:52:50;;;;;;;10.20;2.35;;;8.50;99.90;;;;;;5115727;28;20519;-59
2023/12/30 00:55:16;;;;;;;8.25;2.42;;;8.60;99.90;;;;;;5116114;28;20877;-59
2023/12/30 00:57:41;;;;;;;14.25;2.38;;;8.50;99.90;;;;;;5115946;28;20182;-59
2023/12/30 01:00:07;;;;;;;10.05;2.17;;;8.50;99.90;;;;;;5115888;27;20181;-59
2023/12/30 01:02:33;;;;;;;15.73;3.28;;;8.40;99.90;;;;;;5115828;28;20324;-59
2023/12/30 01:04:59;;;;;;;13.43;2.97;;;8.50;99.90;;;;;;5115468;28;20295;-59
2023/12/30 01:07:24;;;;;;;13.07;2.60;;;8.50;99.90;;;;;;5115915;28;20533;-60
2023/12/30 01:09:50;;;;;;;12.63;2.83;;;8.50;99.90;;;;;;5115763;28;20161;-59
2023/12/30 01:12:16;;;;;;;17.65;3.53;;;8.50;99.90;;;;;;5115682;28;20273;-59
2023/12/30 01:14:41;;;;;;;12.90;2.67;;;8.40;99.90;;;;;;5115687;28;20178;-59
2023/12/30 01:17:07;;;;;;;12.73;2.53;;;8.40;99.90;;;;;;5115598;28;20177;-59
2023/12/30 01:19:33;;;;;;;9.88;2.20;;;8.40;99.90;;;;;;5115645;28;20181;-59
2023/12/30 01:21:58;;;;;;;13.73;3.38;;;8.40;99.90;;;;;;5115310;28;20229;-59
2023/12/30 01:24:26;;;;;;;16.38;4.07;;;8.40;99.90;;;;;;5115387;28;20170;-59
2023/12/30 01:26:51;;;;;;;9.55;2.28;;;8.40;99.90;;;;;;5115355;28;20174;-59
2023/12/30 01:29:17;;;;;;;12.15;2.75;;;8.40;99.90;;;;;;5115334;28;20187;-59
2023/12/30 01:31:42;;;;;;;9.40;2.20;;;8.40;99.90;;;;;;5115306;28;20232;-59
2023/12/30 01:34:08;;;;;;;6.35;2.08;;;8.40;99.90;;;;;;5115256;28;20200;-58
2023/12/30 01:36:34;;;;;;;9.57;2.20;;;8.40;99.90;;;;;;5115342;28;20264;-58
2023/12/30 01:39:00;;;;;;;8.35;2.33;;;8.40;99.90;;;;;;5115074;28;20269;-59
2023/12/30 01:41:25;;;;;;;11.23;3.00;;;8.40;99.90;;;;;;5115097;28;20184;-59
2023/12/30 01:43:51;;;;;;;10.07;2.33;;;8.40;99.90;;;;;;5114776;28;20169;-59
2023/12/30 01:46:17;;;;;;;9.90;2.10;;;8.40;99.90;;;;;;5114948;28;20225;-59
2023/12/30 01:48:42;;;;;;;11.27;2.70;;;8.30;99.90;;;;;;5114938;28;20209;-59
2023/12/30 01:51:08;;;;;;;8.68;2.58;;;8.30;99.90;;;;;;5114890;28;20173;-59
2023/12/30 01:53:39;;;;;;;8.07;2.55;;;8.30;99.90;;;;;;5114996;28;20169;-59
2023/12/30 01:56:05;;;;;;;9.55;2.10;;;8.40;99.90;;;;;;5114973;28;20162;-59
2023/12/30 01:58:33;;;;;;;11.05;2.47;;;8.40;99.90;;;;;;5114770;28;20264;-59
2023/12/30 02:01:00;;;;;;;11.15;2.45;;;8.50;99.90;;;;;;5114449;28;20602;-59
2023/12/30 02:03:26;;;;;;;16.58;2.70;;;8.50;99.90;;;;;;5114741;28;20187;-59
2023/12/30 02:05:52;;;;;;;11.32;2.70;;;8.50;99.90;;;;;;5113444;28;20688;-60
2023/12/30 02:08:18;;;;;;;10.30;2.13;;;8.50;99.90;;;;;;5114123;28;20588;-60
2023/12/30 02:10:44;;;;;;;11.98;2.75;;;8.60;99.90;;;;;;5114637;27;20636;-59
2023/12/30 02:13:10;;;;;;;9.38;2.20;;;8.50;99.90;;;;;;5114560;28;20173;-59
2023/12/30 02:15:36;;;;;;;10.45;2.92;;;8.40;99.90;;;;;;5114528;28;20170;-59
2023/12/30 02:18:02;;;;;;;10.73;2.60;;;8.50;99.90;;;;;;5114401;28;20179;-59
2023/12/30 02:20:30;;;;;;;8.60;2.38;;;8.50;99.90;;;;;;5114406;28;20790;-59
2023/12/30 02:22:55;;;;;;;12.50;2.72;;;8.40;99.90;;;;;;5114360;28;20316;-59
2023/12/30 02:25:21;;;;;;;8.43;2.33;;;8.40;99.90;;;;;;5113962;28;20280;-58
2023/12/30 02:27:47;;;;;;;11.00;2.35;;;8.30;99.90;;;;;;5113322;28;20611;-59
2023/12/30 02:30:13;;;;;;;11.85;2.83;;;8.30;99.90;;;;;;5114416;28;20173;-59
2023/12/30 02:32:40;;;;;;;12.43;2.17;;;8.30;99.90;;;;;;5114262;28;20166;-59
2023/12/30 02:35:05;;;;;;;11.35;2.45;;;8.30;99.90;;;;;;5114253;28;20189;-59
2023/12/30 02:37:31;;;;;;;13.05;2.70;;;8.30;99.90;;;;;;5114364;28;20177;-59
2023/12/30 02:39:57;;;;;;;15.13;2.75;;;8.20;99.90;;;;;;5114112;28;20228;-59
2023/12/30 02:42:22;;;;;;;12.02;2.65;;;8.20;99.90;;;;;;5114091;28;20196;-59
2023/12/30 02:44:49;;;;;;;14.18;2.70;;;8.20;99.90;;;;;;5113975;28;20212;-59
2023/12/30 02:47:15;;;;;;;10.52;2.17;;;8.20;99.90;;;;;;5114066;28;20188;-59
2023/12/30 02:49:45;;;;;;;14.88;2.67;;;8.30;99.90;;;;;;5114379;28;20178;-59
2023/12/30 02:52:11;;;;;;;10.35;2.47;;;8.20;99.90;;;;;;5114002;28;20226;-59
2023/12/30 02:54:37;;;;;;;15.40;2.53;;;8.10;99.90;;;;;;5113997;28;20705;-59
2023/12/30 02:57:03;;;;;;;10.07;2.80;;;8.20;99.90;;;;;;5114074;28;20260;-59
2023/12/30 02:59:30;;;;;;;13.65;3.35;;;8.20;99.90;;;;;;5113926;28;20190;-60
2023/12/30 03:01:55;;;;;;;15.68;2.92;;;8.20;99.90;;;;;;5113937;28;20173;-60
2023/12/30 03:04:21;;;;;;;11.88;2.72;;;8.30;99.90;;;;;;5113787;28;20180;-59
2023/12/30 03:06:47;;;;;;;15.73;2.83;;;8.20;99.90;;;;;;5113808;28;20173;-59
2023/12/30 03:09:12;;;;;;;11.43;2.95;;;8.30;99.90;;;;;;5113462;28;20211;-59
2023/12/30 03:11:38;;;;;;;13.68;3.05;;;8.20;99.90;;;;;;5113812;28;20173;-59
2023/12/30 03:14:04;;;;;;;19.20;3.22;;;8.30;99.90;;;;;;5114823;28;20169;-59
2023/12/30 03:16:31;;;;;;;13.48;3.25;;;8.20;99.90;;;;;;5117830;28;20215;-59
2023/12/30 03:18:56;;;;;;;10.13;2.70;;;8.20;99.90;;;;;;5117617;28;20174;-59
2023/12/30 03:21:22;;;;;;;11.63;2.95;;;8.20;99.90;;;;;;5117837;28;20678;-59
2023/12/30 03:23:48;;;;;;;17.77;3.33;;;8.20;99.90;;;;;;5117292;28;20232;-59
2023/12/30 03:26:13;;;;;;;12.30;2.97;;;8.10;99.90;;;;;;5117645;28;20296;-59
2023/12/30 03:28:39;;;;;;;10.35;2.67;;;8.10;99.90;;;;;;5117434;28;20180;-59
2023/12/30 03:31:07;;;;;;;16.27;2.80;;;8.30;99.90;;;;;;5117340;28;20185;-59
2023/12/30 03:33:32;;;;;;;16.77;2.83;;;8.30;99.90;;;;;;5117556;28;20637;-59
2023/12/30 03:35:58;;;;;;;11.88;2.50;;;8.10;99.90;;;;;;5117571;28;20173;-58
2023/12/30 03:38:24;;;;;;;11.35;2.67;;;8.20;99.90;;;;;;5117440;28;20173;-59
2023/12/30 03:40:50;;;;;;;16.70;2.80;;;8.20;99.90;;;;;;5117769;28;20182;-59
2023/12/30 03:43:16;;;;;;;14.85;3.00;;;8.20;99.90;;;;;;5117474;28;20169;-59
2023/12/30 03:45:42;;;;;;;13.63;2.88;;;8.10;99.90;;;;;;5117098;28;20197;-59
2023/12/30 03:48:08;;;;;;;14.60;3.05;;;8.00;99.90;;;;;;5116868;28;20177;-59
2023/12/30 03:50:36;;;;;;;17.95;3.58;;;8.00;99.90;;;;;;5117029;28;20173;-59
2023/12/30 03:53:02;;;;;;;8.75;2.85;;;7.90;99.90;;;;;;5117190;28;20174;-59
2023/12/30 03:55:28;;;;;;;12.68;2.65;;;7.90;99.90;;;;;;5116942;28;20180;-59
2023/12/30 03:57:53;;;;;;;13.90;3.28;;;8.00;99.90;;;;;;5115891;28;20177;-59
2023/12/30 04:00:20;;;;;;;10.23;3.13;;;7.90;99.90;;;;;;5117158;28;20166;-59
2023/12/30 04:02:47;;;;;;;15.60;3.10;;;7.80;99.90;;;;;;5116843;28;20685;-59
2023/12/30 04:05:13;;;;;;;13.98;2.95;;;7.80;99.90;;;;;;5116981;28;20293;-59
2023/12/30 04:07:38;;;;;;;17.05;3.53;;;7.80;99.90;;;;;;5116976;28;20286;-59
2023/12/30 04:10:05;;;;;;;10.60;2.55;;;7.80;99.90;;;;;;5116890;28;20579;-59
2023/12/30 04:12:32;;;;;;;14.15;2.92;;;7.80;99.90;;;;;;5116536;28;20173;-59
2023/12/30 04:14:58;;;;;;;10.13;2.85;;;7.80;99.90;;;;;;5116834;28;20237;-59
2023/12/30 04:17:23;;;;;;;12.50;2.45;;;7.80;99.90;;;;;;5116655;28;20173;-59
2023/12/30 04:19:49;;;;;;;8.00;2.55;;;7.80;99.90;;;;;;5116807;28;20178;-59
2023/12/30 04:22:15;;;;;;;14.52;2.83;;;7.70;99.90;;;;;;5115278;28;20231;-59
2023/12/30 04:24:40;;;;;;;12.65;2.25;;;7.70;99.90;;;;;;5116168;28;20204;-59
2023/12/30 04:27:06;;;;;;;16.17;3.33;;;7.70;99.90;;;;;;5115446;28;20188;-59
2023/12/30 04:29:31;;;;;;;10.57;2.63;;;7.70;99.90;;;;;;5116537;28;20176;-59
2023/12/30 04:31:57;;;;;;;13.82;2.67;;;7.70;99.90;;;;;;5116487;28;20514;-59
2023/12/30 04:34:23;;;;;;;14.73;3.10;;;7.60;99.90;;;;;;5116714;28;20626;-59
2023/12/30 04:36:48;;;;;;;13.55;2.33;;;7.70;99.90;;;;;;5116543;28;20176;-59
2023/12/30 04:39:14;;;;;;;11.40;2.35;;;7.70;99.90;;;;;;5116388;28;20204;-59
2023/12/30 04:41:40;;;;;;;10.93;2.92;;;7.70;99.90;;;;;;5116045;28;20181;-59
2023/12/30 04:44:06;;;;;;;14.43;3.05;;;7.70;99.90;;;;;;5116037;28;20260;-60
2023/12/30 04:46:31;;;;;;;10.30;2.72;;;7.70;99.90;;;;;;5116172;28;20284;-60
2023/12/30 04:49:01;;;;;;;13.18;2.97;;;7.70;99.90;;;;;;5116146;28;20169;-59
2023/12/30 04:51:27;;;;;;;10.98;2.35;;;7.70;99.90;;;;;;5115725;28;20526;-60
2023/12/30 04:53:52;;;;;;;11.68;2.50;;;7.80;99.90;;;;;;5116292;28;20178;-59
2023/12/30 04:56:18;;;;;;;11.13;2.75;;;7.80;99.90;;;;;;5116143;28;20173;-59
2023/12/30 04:58:44;;;;;;;16.13;2.40;;;7.80;99.90;;;;;;5116040;28;20622;-59
2023/12/30 05:01:11;;;;;;;10.93;2.38;;;7.80;99.90;;;;;;5115916;28;20172;-59
2023/12/30 05:03:37;;;;;;;11.50;2.90;;;7.80;99.90;;;;;;5115819;28;20203;-59
2023/12/30 05:06:03;;;;;;;13.73;2.47;;;7.80;99.90;;;;;;5115723;28;20611;-59
2023/12/30 05:08:29;;;;;;;11.15;2.35;;;7.70;99.90;;;;;;5115821;28;20264;-59
2023/12/30 05:10:55;;;;;;;12.77;2.67;;;7.70;99.90;;;;;;5115705;28;20177;-59
2023/12/30 05:13:21;;;;;;;10.63;2.58;;;7.70;99.90;;;;;;5115683;28;20522;-59
2023/12/30 05:15:49;;;;;;;15.07;2.67;;;7.70;99.90;;;;;;5115559;28;20183;-59
2023/12/30 05:18:15;;;;;;;15.50;2.95;;;7.70;99.90;;;;;;5115541;28;20268;-59
2023/12/30 05:20:41;;;;;;;10.25;2.85;;;7.60;99.90;;;;;;5115548;28;20162;-59
2023/12/30 05:23:07;;;;;;;8.05;2.08;;;7.60;99.90;;;;;;5115582;28;20223;-59
2023/12/30 05:25:33;;;;;;;12.70;2.67;;;7.50;99.90;;;;;;5115329;28;20236;-59
2023/12/30 05:27:58;;;;;;;10.25;2.78;;;7.50;99.90;;;;;;5115389;28;20203;-59
2023/12/30 05:30:24;;;;;;;7.43;2.20;;;7.50;99.90;;;;;;5115515;28;20176;-59
2023/12/30 05:32:50;;;;;;;12.55;2.38;;;7.50;99.90;;;;;;5115290;28;20188;-59
2023/12/30 05:35:15;;;;;;;12.60;2.72;;;7.50;99.90;;;;;;5115294;28;20179;-60
2023/12/30 05:37:41;;;;;;;13.40;2.60;;;7.50;99.90;;;;;;5114784;28;20171;-60
2023/12/30 05:40:08;;;;;;;14.18;2.50;;;7.60;99.90;;;;;;5115215;28;20643;-59
2023/12/30 05:42:34;;;;;;;11.90;2.33;;;7.60;99.90;;;;;;5114721;28;20533;-60
2023/12/30 05:45:00;;;;;;;8.48;2.55;;;7.50;99.90;;;;;;5115020;28;20196;-60
2023/12/30 05:47:25;;;;;;;13.90;2.25;;;7.50;99.90;;;;;;5115136;28;20173;-59
2023/12/30 05:49:51;;;;;;;9.32;2.70;;;7.50;99.90;;;;;;5114735;28;20173;-59
2023/12/30 05:52:17;;;;;;;9.07;2.35;;;7.60;99.90;;;;;;5114905;28;20184;-60
2023/12/30 05:54:45;;;;;;;10.60;2.63;;;7.60;99.90;;;;;;5114884;28;20181;-60
2023/12/30 05:57:10;;;;;;;12.00;2.67;;;7.50;99.90;;;;;;5114790;28;20173;-59
2023/12/30 05:59:36;;;;;;;17.10;3.17;;;7.50;99.90;;;;;;5114887;28;20369;-60
2023/12/30 06:02:02;;;;;;;13.18;2.55;;;7.50;99.90;;;;;;5115039;28;20522;-60
2023/12/30 06:04:29;;;;;;;14.18;2.65;;;7.60;99.90;;;;;;5114694;28;20914;-57
2023/12/30 06:06:55;;;;;;;13.88;3.10;;;7.60;99.90;;;;;;5114594;28;20641;-59
2023/12/30 06:09:21;;;;;;;12.00;2.58;;;7.60;99.90;;;;;;5114587;28;20177;-59
2023/12/30 06:11:48;;;;;;;11.95;2.97;;;7.70;99.90;;;;;;5114576;28;20187;-59
2023/12/30 06:14:14;;;;;;;12.25;2.25;;;7.90;99.90;;;;;;5114556;28;20264;-59
2023/12/30 06:16:39;;;;;;;14.23;2.92;;;7.90;99.90;;;;;;5114130;28;20293;-59
2023/12/30 06:19:05;;;;;;;14.30;3.25;;;7.90;99.90;;;;;;5114431;28;20174;-59
2023/12/30 06:21:31;;;;;;;12.38;2.70;;;7.90;99.90;;;;;;5113816;28;20185;-59
2023/12/30 06:23:57;;;;;;;10.43;2.15;;;8.00;99.90;;;;;;5114418;28;20157;-59
2023/12/30 06:26:24;;;;;;;9.02;2.38;;;7.90;99.90;;;;;;5114388;28;20632;-58
2023/12/30 06:28:50;;;;;;;15.35;2.97;;;7.90;99.90;;;;;;5113157;28;20177;-58
2023/12/30 06:31:15;;;;;;;12.57;2.45;;;7.80;99.90;;;;;;5114257;28;20174;-59
2023/12/30 06:33:41;;;;;;;12.80;3.05;;;7.80;99.90;;;;;;5113965;28;20265;-58
2023/12/30 06:36:07;;;;;;;12.02;2.92;;;7.70;99.90;;;;;;5114215;28;20173;-59
2023/12/30 06:38:33;;;;;;;12.43;2.63;;;7.80;99.90;;;;;;5113695;28;20683;-59
2023/12/30 06:40:58;;;;;;;19.45;3.42;;;7.90;99.90;;;;;;5113514;28;20176;-59
2023/12/30 06:43:24;;;;;;;11.02;2.92;;;7.90;99.90;;;;;;5113609;28;20169;-59
2023/12/30 06:45:50;;;;;;;14.27;3.08;;;7.90;99.90;;;;;;5113542;28;20256;-60
2023/12/30 06:48:20;;;;;;;14.00;3.10;;;7.90;99.90;;;;;;5112894;28;20261;-60
2023/12/30 06:50:46;;;;;;;12.65;3.10;;;7.90;99.90;;;;;;5110722;28;20201;-59
2023/12/30 06:53:11;;;;;;;12.43;3.13;;;7.90;99.90;;;;;;5113689;28;20217;-59
2023/12/30 06:55:37;;;;;;;11.57;2.78;;;7.90;99.90;;;;;;5113867;28;20277;-59
2023/12/30 06:58:03;;;;;;;13.80;3.75;;;7.90;99.90;;;;;;5113787;28;20267;-59
2023/12/30 07:00:29;;;;;;;15.95;3.15;;;7.90;99.90;;;;;;5113858;28;20252;-59
2023/12/30 07:02:55;;;;;;;12.98;3.50;;;7.80;99.90;;;;;;5113202;28;20744;-59
2023/12/30 07:05:21;;;;;;;12.77;3.00;;;7.90;99.90;;;;;;5111751;28;20210;-59
2023/12/30 07:07:46;;;;;;;14.95;3.75;;;8.00;99.90;;;;;;5112068;28;20258;-59
2023/12/30 07:10:12;;;;;;;13.70;3.00;;;8.00;99.90;;;;;;5112456;28;20177;-58
2023/12/30 07:12:38;;;;;;;11.80;2.88;;;7.80;99.90;;;;;;5113623;28;20182;-58
2023/12/30 07:15:04;;;;;;;12.55;3.08;;;7.80;99.90;;;;;;5113824;28;20177;-58
2023/12/30 07:17:30;;;;;;;17.33;3.95;;;7.80;99.90;;;;;;5112650;28;20179;-59
2023/12/30 07:19:56;;;;;;;16.95;3.58;;;7.70;99.90;;;;;;5112815;28;20193;-59
2023/12/30 07:22:22;;;;;;;13.10;3.20;;;7.60;99.90;;;;;;5111810;28;20715;-59
2023/12/30 07:24:48;;;;;;;12.45;3.67;;;7.60;99.90;;;;;;5113801;28;20243;-59
2023/12/30 07:27:14;;;;;;;12.52;3.10;;;7.60;99.90;;;;;;5113643;28;20197;-59
2023/12/30 07:29:40;;;;;;;15.57;2.88;;;7.60;99.90;;;;;;5113341;28;20170;-60
2023/12/30 07:32:06;;;;;;;12.05;2.92;;;7.60;99.90;;;;;;5113648;28;20176;-59
2023/12/30 07:34:32;;;;;;;12.27;3.20;;;7.60;99.90;;;;;;5113220;28;20179;-59
2023/12/30 07:37:01;;;;;;;14.60;2.80;;;7.50;99.90;;;;;;5113561;28;20560;-59
2023/12/30 07:39:32;;;;;;;10.20;3.10;;;7.50;99.90;;;;;;5113727;28;20178;-59
2023/12/30 07:41:58;;;;;;;14.48;3.20;;;7.60;99.90;;;;;;5113400;28;20192;-59
2023/12/30 07:44:23;;;;;;;19.25;4.03;;;7.60;99.90;;;;;;5113522;28;20622;-59
2023/12/30 07:46:49;;;;;;;13.65;3.55;;;7.60;99.90;;;;;;5113360;28;20256;-59
2023/12/30 07:49:17;;;;;;;14.85;3.50;;;7.60;99.90;;;;;;5113466;28;20264;-59
2023/12/30 07:51:43;;;;;;;14.30;3.72;;;7.60;99.90;;;;;;5113267;28;20283;-59
2023/12/30 07:54:08;;;;;;;16.70;4.13;;;7.70;99.90;;;;;;5113335;28;20171;-59
2023/12/30 07:56:34;;;;;;;18.75;3.70;;;7.70;99.90;;;;;;5113257;28;20639;-59
2023/12/30 07:59:00;;;;;;;17.90;3.53;;;7.80;99.90;;;;;;5113342;28;20169;-59
2023/12/30 08:01:26;;;;;;;14.40;4.00;;;7.90;99.90;;;;;;5116393;28;20249;-59
2023/12/30 08:03:51;;;;;;;14.65;3.47;;;7.80;99.90;;;;;;5117033;28;20173;-59
2023/12/30 08:06:17;;;;;;;16.90;3.97;;;7.80;99.90;;;;;;5116941;28;20247;-60
2023/12/30 08:08:43;;;;;;;16.00;4.18;;;7.90;99.90;;;;;;5116628;28;20260;-59
2023/12/30 08:11:08;;;;;;;15.98;4.32;;;7.90;99.90;;;;;;5116989;28;20196;-59
2023/12/30 08:13:34;;;;;;;15.50;4.40;;;7.90;99.90;;;;;;5116905;28;20201;-59
2023/12/30 08:15:59;;;;;;;16.77;4.18;;;7.80;99.90;;;;;;5116896;28;20576;-59
2023/12/30 08:18:25;;;;;;;15.43;4.25;;;7.90;99.90;;;;;;5116811;28;20632;-59
2023/12/30 08:20:52;;;;;;;20.00;4.50;;;7.80;99.90;;;;;;5116779;28;20252;-59
2023/12/30 08:23:18;;;;;;;14.70;4.57;;;7.90;99.90;;;;;;5116649;28;20229;-59
2023/12/30 08:25:44;;;;;;;18.33;4.72;;;7.90;99.90;;;;;;5116612;28;20217;-60
2023/12/30 08:28:09;;;;;;;16.33;5.78;;;7.90;99.90;;;;;;5116659;28;20196;-59
2023/12/30 08:30:35;;;;;;;26.35;6.80;;;8.00;99.90;;;;;;5116569;28;20664;-60
2023/12/30 08:33:06;;;;;;;13.85;5.70;;;8.00;99.90;;;;;;5116550;28;20177;-59
2023/12/30 08:35:32;;;;;;;22.77;6.28;;;8.00;99.90;;;;;;5116450;28;20168;-59
2023/12/30 08:37:58;;;;;;;21.17;6.68;;;7.90;99.90;;;;;;5116402;28;20226;-59
2023/12/30 08:40:24;;;;;;;15.65;7.15;;;8.00;99.90;;;;;;5116393;28;20166;-59
2023/12/30 08:42:50;;;;;;;19.98;7.07;;;8.10;99.90;;;;;;5116362;28;20234;-59
2023/12/30 08:45:19;;;;;;;17.08;6.75;;;8.10;99.90;;;;;;5116303;28;20658;-59
2023/12/30 08:47:45;;;;;;;17.77;7.60;;;8.10;99.90;;;;;;5116099;28;20720;-59
2023/12/30 08:50:12;;;;;;;22.65;7.30;;;8.20;99.90;;;;;;5116172;28;20561;-59
2023/12/30 08:52:39;;;;;;;21.13;7.45;;;8.40;99.90;;;;;;5115762;28;20165;-59
2023/12/30 08:55:10;;;;;;;20.05;7.03;;;8.30;99.90;;;;;;5116101;28;20180;-59
2023/12/30 08:57:36;;;;;;;20.55;7.25;;;8.40;99.90;;;;;;5115991;28;20158;-59
2023/12/30 09:00:08;;;;;;;25.02;7.93;;;8.50;99.90;;;;;;5116040;28;20260;-59
2023/12/30 09:02:37;;;;;;;24.70;8.20;;;8.40;99.90;;;;;;5115899;28;20622;-59
2023/12/30 09:05:04;;;;;;;15.70;7.10;;;8.50;99.90;;;;;;5115769;28;20588;-59
2023/12/30 09:07:31;;;;;;;17.98;7.38;;;8.50;99.90;;;;;;5115843;28;20185;-59
2023/12/30 09:09:58;;;;;;;21.10;7.38;;;8.60;99.90;;;;;;5115913;28;20671;-59
2023/12/30 09:12:24;;;;;;;17.40;7.30;;;8.70;99.90;;;;;;5114946;28;20173;-59
2023/12/30 09:14:50;;;;;;;16.35;7.07;;;8.90;99.90;;;;;;5115691;28;20314;-59
2023/12/30 09:17:15;;;;;;;22.05;7.50;;;9.00;99.90;;;;;;5115606;28;20256;-59
2023/12/30 09:19:41;;;;;;;22.42;6.75;;;9.10;99.90;;;;;;5115643;28;20691;-59
2023/12/30 09:22:07;;;;;;;16.73;6.80;;;9.20;99.90;;;;;;5115224;28;20275;-59
2023/12/30 09:24:33;;;;;;;17.80;6.63;;;9.20;99.90;;;;;;5115433;28;20209;-59
2023/12/30 09:26:59;;;;;;;20.55;6.80;;;9.30;99.90;;;;;;5115389;28;20177;-59
2023/12/30 09:29:25;;;;;;;18.77;6.85;;;9.30;99.90;;;;;;5115222;28;20168;-59
2023/12/30 09:31:51;;;;;;;16.80;6.88;;;9.40;99.90;;;;;;5115038;28;20174;-59
2023/12/30 09:34:16;;;;;;;19.48;6.72;;;9.40;99.90;;;;;;5115283;28;20181;-59
2023/12/30 09:36:42;;;;;;;15.48;6.32;;;9.50;99.90;;;;;;5115256;28;20626;-59
2023/12/30 09:39:11;;;;;;;15.27;5.88;;;9.50;99.90;;;;;;5115226;28;20177;-59
2023/12/30 09:41:39;;;;;;;13.50;6.20;;;9.50;99.90;;;;;;5115156;28;20258;-59
2023/12/30 09:44:06;;;;;;;17.65;6.30;;;9.50;99.90;;;;;;5115077;28;20205;-59
2023/12/30 09:46:35;;;;;;;14.13;5.63;;;9.50;99.90;;;;;;5114976;28;20207;-59
2023/12/30 09:49:05;;;;;;;20.38;5.55;;;9.50;99.90;;;;;;5115026;28;20234;-59
2023/12/30 09:51:32;;;;;;;14.52;5.53;;;9.50;99.90;;;;;;5115053;28;20168;-59
2023/12/30 09:53:58;;;;;;;14.63;5.10;;;9.60;99.90;;;;;;5114961;28;20215;-59
2023/12/30 09:56:24;;;;;;;14.40;4.72;;;9.50;99.90;;;;;;5114815;28;20187;-59
2023/12/30 09:58:50;;;;;;;16.02;5.82;;;9.60;99.90;;;;;;5114828;28;20273;-59
2023/12/30 10:01:16;;;;;;;15.43;4.72;;;9.60;99.90;;;;;;5114503;28;20252;-58
2023/12/30 10:03:42;;;;;;;15.10;4.65;;;9.60;99.90;;;;;;5115021;28;20170;-59
2023/12/30 10:06:12;;;;;;;17.63;4.68;;;9.70;99.90;;;;;;5114568;28;20240;-59
2023/12/30 10:08:38;;;;;;;15.68;5.00;;;9.80;99.90;;;;;;5114640;28;20162;-59
2023/12/30 10:11:08;;;;;;;14.98;4.55;;;9.80;99.90;;;;;;5114600;28;20185;-59
2023/12/30 10:13:36;;;;;;;13.90;4.80;;;9.80;99.90;;;;;;5114551;28;20169;-59
2023/12/30 10:16:05;;;;;;;14.98;4.28;;;9.70;99.90;;;;;;5114844;28;20177;-59
2023/12/30 10:18:32;;;;;;;14.15;4.43;;;9.70;99.90;;;;;;5114436;28;20184;-58
2023/12/30 10:20:58;;;;;;;9.27;3.72;;;9.70;99.90;;;;;;5114289;28;20180;-59
2023/12/30 10:23:27;;;;;;;15.90;4.75;;;9.90;99.90;;;;;;5114388;28;20229;-59
2023/12/30 10:25:52;;;;;;;16.58;4.72;;;9.90;99.90;;;;;;5114279;28;20201;-59
2023/12/30 10:28:18;;;;;;;16.95;4.82;;;9.90;99.90;;;;;;5114290;28;20177;-58
2023/12/30 10:30:44;;;;;;;14.55;4.45;;;9.90;99.90;;;;;;5114224;28;20610;-59
2023/12/30 10:33:12;;;;;;;13.50;4.40;;;9.90;99.90;;;;;;5114229;28;20197;-59
2023/12/30 10:35:44;;;;;;;9.55;3.58;;;9.90;99.90;;;;;;5114148;28;20181;-59
2023/12/30 10:38:12;;;;;;;13.60;4.10;;;10.00;99.90;;;;;;5114175;28;20487;-59
2023/12/30 10:40:38;;;;;;;15.65;4.00;;;10.10;99.90;;;;;;5114172;28;20161;-59
2023/12/30 10:43:04;;;;;;;15.95;4.03;;;10.10;99.90;;;;;;5114116;28;20181;-59
2023/12/30 10:45:30;;;;;;;11.18;4.35;;;10.10;99.90;;;;;;5114044;28;20232;-59
2023/12/30 10:47:59;;;;;;;10.57;3.63;;;10.00;99.90;;;;;;5113999;28;20170;-59
2023/12/30 10:50:26;;;;;;;10.23;3.75;;;10.10;99.90;;;;;;5113964;28;20181;-59
2023/12/30 10:53:05;;;;;;;13.43;4.03;;;10.00;99.90;;;;;;5113916;28;20177;-59
2023/12/30 10:55:33;;;;;;;10.43;3.50;;;9.90;99.90;;;;;;5113798;28;20153;-59
2023/12/30 10:58:05;;;;;;;9.90;3.47;;;10.00;99.90;;;;;;5113951;28;20172;-59
2023/12/30 11:00:35;;;;;;;12.95;3.75;;;10.00;99.90;;;;;;5113641;28;20634;-59
2023/12/30 11:03:03;;;;;;;14.27;4.35;;;10.10;99.90;;;;;;5113889;28;20160;-59
2023/12/30 11:05:48;;;;;;;13.35;4.25;;;10.10;99.90;;;;;;5113756;28;20287;-59
2023/12/30 11:08:17;;;;;;;9.70;3.45;;;10.30;99.90;;;;;;5113848;28;20162;-59
2023/12/30 11:10:43;;;;;;;11.25;3.90;;;10.10;99.90;;;;;;5113808;28;20192;-59
2023/12/30 11:13:09;;;;;;;12.88;3.97;;;10.10;99.90;;;;;;5113855;28;20250;-59
2023/12/30 11:15:34;;;;;;;13.23;3.78;;;10.30;99.90;;;;;;5113798;28;20181;-59
2023/12/30 11:18:01;;;;;;;11.88;3.92;;;10.30;99.90;;;;;;5113855;28;20169;-59
2023/12/30 11:20:28;;;;;;;13.27;3.85;;;10.40;99.90;;;;;;5113763;28;20271;-59
2023/12/30 11:22:57;;;;;;;14.25;4.43;;;10.50;99.90;;;;;;5113244;28;20233;-59
2023/12/30 11:25:42;;;;;;;15.82;3.72;;;10.50;99.90;;;;;;5113543;28;20661;-59
2023/12/30 11:28:19;;;;;;;11.45;3.78;;;10.50;99.90;;;;;;5113746;28;20491;-59
2023/12/30 11:31:08;;;;;;;11.63;3.50;;;10.40;99.90;;;;;;5112408;28;20204;-59
2023/12/30 11:33:34;;;;;;;13.25;4.10;;;10.60;99.90;;;;;;5113639;28;20169;-60
2023/12/30 11:36:00;;;;;;;8.88;3.20;;;10.60;99.90;;;;;;5116174;28;20172;-59
2023/12/30 11:38:30;;;;;;;6.70;3.30;;;10.50;99.90;;;;;;5117319;28;20656;-60
2023/12/30 11:40:56;;;;;;;7.15;3.15;;;10.60;99.90;;;;;;5117421;28;20169;-58
2023/12/30 11:43:22;;;;;;;7.32;2.65;;;10.70;99.90;;;;;;5117509;28;20176;-59
2023/12/30 11:45:49;;;;;;;12.23;3.65;;;10.80;99.90;;;;;;5117387;28;20204;-59
2023/12/30 11:48:16;;;;;;;10.00;3.55;;;10.80;99.90;;;;;;5117138;28;20168;-59
2023/12/30 11:50:42;;;;;;;10.80;3.58;;;10.80;99.90;;;;;;5117409;28;20237;-59
2023/12/30 11:53:08;;;;;;;7.10;3.10;;;10.80;99.90;;;;;;5117248;28;20686;-59
2023/12/30 11:55:34;;;;;;;11.30;3.17;;;10.80;99.90;;;;;;5117202;28;20185;-59
2023/12/30 11:58:00;;;;;;;10.98;3.05;;;10.80;99.90;;;;;;5115911;28;20230;-59
2023/12/30 12:00:26;;;;;;;11.00;3.60;;;10.70;99.90;;;;;;5117165;28;20175;-59
2023/12/30 12:02:53;;;;;;;10.48;3.08;;;10.70;99.90;;;;;;5117061;28;20242;-59
2023/12/30 12:05:19;;;;;;;10.48;3.30;;;10.80;99.90;;;;;;5116903;28;20681;-60
2023/12/30 12:07:45;;;;;;;9.48;3.15;;;10.80;99.90;;;;;;5117016;28;20641;-59
2023/12/30 12:10:11;;;;;;;11.63;3.22;;;10.70;99.90;;;;;;5117023;28;20180;-59
2023/12/30 12:12:38;;;;;;;11.98;3.25;;;10.80;99.90;;;;;;5116943;28;20239;-59
2023/12/30 12:15:04;;;;;;;10.05;2.97;;;10.80;99.90;;;;;;5116885;28;20265;-59
2023/12/30 12:17:31;;;;;;;10.50;3.22;;;10.80;99.90;;;;;;5117017;28;20169;-59
2023/12/30 12:19:57;;;;;;;8.40;2.88;;;11.00;99.90;;;;;;5116764;28;20165;-58
2023/12/30 12:22:23;;;;;;;7.47;2.50;;;10.90;99.90;;;;;;5116615;28;20543;-59
2023/12/30 12:24:48;;;;;;;7.78;2.58;;;10.90;99.90;;;;;;5116623;28;20176;-58
2023/12/30 12:27:23;;;;;;;8.63;2.45;;;10.90;99.90;;;;;;5116628;28;20186;-58
2023/12/30 12:29:51;;;;;;;8.00;2.53;;;10.90;99.90;;;;;;5116339;28;20657;-59
2023/12/30 12:32:20;;;;;;;8.55;2.50;;;10.80;99.90;;;;;;5116479;28;20202;-59
2023/12/30 12:34:47;;;;;;;8.88;2.83;;;10.70;99.90;;;;;;5116499;28;20564;-58
2023/12/30 12:37:15;;;;;;;7.38;2.47;;;10.80;99.90;;;;;;5116432;28;20607;-59
2023/12/30 12:39:45;;;;;;;6.50;2.50;;;10.90;99.90;;;;;;5116391;27;20173;-58
2023/12/30 12:42:11;;;;;;;6.93;2.60;;;11.00;99.90;;;;;;5116255;28;20295;-59